Terminal Aerodrome Forecast
Issued by NWS Cleveland, OH

Home | Current Version | Previous Version | Text Only | Print | Product List | Glossary Off
Versions: 1 2 3 4 5 6 7 8 9 10 11 12 13 14 15 16

344
FTUS41 KCLE 040541
TAFCAK
TAF
KCAK 040541Z 0406/0506 20004KT P6SM SCT100
     FM041400 20008KT P6SM BKN100
     FM042000 22010KT P6SM -SHRA OVC050
      TEMPO 0420/0422 26015G25KT 3SM TSRA OVC025CB
     FM042200 28007KT 3SM -SHRA BR OVC025=

USA.gov is the U.S. government's official web portal to all federal, state and local government web resources and services.